BAW213 EGJJ-EGLL
Flight info
| Callsign | BAW213 |
|---|---|
| Flight time | 0h 35m |
| Altitude | 23000 |
| Route | ORIST L982 ROXOG |
| Aircraft | A320/M-SDE3FGHIRWY/LB1 |
Departure
| Time | 2026-05-03 21:16 |
|---|---|
| Airport | Jersey Airport (EGJJ) |
Arrival
| Time | 2026-05-03 21:51 |
|---|---|
| Airport | London Heathrow Airport (EGLL) |
| Time | Latitude | Longitude | Altitude | Speed | Heading |
|---|---|---|---|---|---|
| 2026-05-03 20:51 | 49.20492 | -2.19791 | 284 ft | 0 kts | 354° |
| 2026-05-03 21:07 | 49.20491 | -2.19791 | 284 ft | 1 kts | 354° |
| 2026-05-03 21:08 | 49.20476 | -2.19788 | 284 ft | 3 kts | 349° |
| 2026-05-03 21:08 | 49.20457 | -2.19781 | 287 ft | 3 kts | 332° |
| 2026-05-03 21:08 | 49.20442 | -2.19764 | 289 ft | 3 kts | 290° |
| 2026-05-03 21:08 | 49.20440 | -2.19750 | 293 ft | 0 kts | 265° |
| 2026-05-03 21:11 | 49.20439 | -2.19758 | 289 ft | 2 kts | 264° |
| 2026-05-03 21:11 | 49.20433 | -2.19854 | 284 ft | 12 kts | 265° |
| 2026-05-03 21:11 | 49.20493 | -2.19925 | 284 ft | 13 kts | 353° |
| 2026-05-03 21:11 | 49.20592 | -2.19916 | 284 ft | 15 kts | 38° |
| 2026-05-03 21:12 | 49.20614 | -2.19751 | 284 ft | 17 kts | 84° |
| 2026-05-03 21:12 | 49.20674 | -2.19625 | 284 ft | 15 kts | 42° |
| 2026-05-03 21:12 | 49.20706 | -2.19474 | 284 ft | 16 kts | 81° |
| 2026-05-03 21:12 | 49.20696 | -2.19295 | 284 ft | 18 kts | 104° |
| 2026-05-03 21:13 | 49.20686 | -2.19089 | 284 ft | 21 kts | 82° |
| 2026-05-03 21:13 | 49.20705 | -2.18855 | 284 ft | 23 kts | 83° |
| 2026-05-03 21:13 | 49.20727 | -2.18594 | 284 ft | 26 kts | 83° |
| 2026-05-03 21:13 | 49.20753 | -2.18343 | 286 ft | 15 kts | 59° |
| 2026-05-03 21:14 | 49.20788 | -2.18322 | 284 ft | 0 kts | 4° |
| 2026-05-03 21:14 | 49.20791 | -2.18322 | 284 ft | 4 kts | 2° |
| 2026-05-03 21:14 | 49.20879 | -2.18380 | 285 ft | 18 kts | 325° |
| 2026-05-03 21:15 | 49.20885 | -2.18528 | 282 ft | 2 kts | 262° |
| 2026-05-03 21:15 | 49.20883 | -2.18551 | 282 ft | 19 kts | 262° |
| 2026-05-03 21:15 | 49.20823 | -2.19262 | 286 ft | 111 kts | 263° |
| 2026-05-03 21:15 | 49.20692 | -2.20735 | 492 ft | 155 kts | 262° |
| 2026-05-03 21:16 | 49.20547 | -2.22362 | 1379 ft | 153 kts | 263° |
| 2026-05-03 21:16 | 49.20410 | -2.24020 | 2114 ft | 166 kts | 263° |
| 2026-05-03 21:16 | 49.20256 | -2.25885 | 2691 ft | 188 kts | 262° |
| 2026-05-03 21:16 | 49.20082 | -2.27969 | 3370 ft | 207 kts | 262° |
| 2026-05-03 21:17 | 49.19957 | -2.30209 | 4302 ft | 217 kts | 274° |
| 2026-05-03 21:17 | 49.20469 | -2.32311 | 4915 ft | 236 kts | 306° |
| 2026-05-03 21:17 | 49.21781 | -2.33674 | 4999 ft | 232 kts | 347° |
| 2026-05-03 21:17 | 49.23315 | -2.33504 | 5422 ft | 232 kts | 13° |
| 2026-05-03 21:18 | 49.24912 | -2.32963 | 6060 ft | 238 kts | 12° |
| 2026-05-03 21:18 | 49.26450 | -2.32482 | 6812 ft | 243 kts | 11° |
| 2026-05-03 21:18 | 49.28194 | -2.31962 | 7239 ft | 268 kts | 10° |
| 2026-05-03 21:18 | 49.30102 | -2.31416 | 7742 ft | 288 kts | 9° |
| 2026-05-03 21:19 | 49.32077 | -2.30858 | 8511 ft | 296 kts | 9° |
| 2026-05-03 21:19 | 49.34122 | -2.30286 | 9373 ft | 301 kts | 8° |
| 2026-05-03 21:19 | 49.35990 | -2.29769 | 10113 ft | 306 kts | 8° |
| 2026-05-03 21:19 | 49.38096 | -2.29184 | 10906 ft | 310 kts | 9° |
| 2026-05-03 21:20 | 49.40231 | -2.28589 | 11717 ft | 313 kts | 9° |
| 2026-05-03 21:20 | 49.42384 | -2.27986 | 12526 ft | 316 kts | 9° |
| 2026-05-03 21:20 | 49.44560 | -2.27370 | 13337 ft | 319 kts | 9° |
| 2026-05-03 21:20 | 49.46758 | -2.26757 | 14090 ft | 323 kts | 9° |
| 2026-05-03 21:21 | 49.48985 | -2.26140 | 14758 ft | 328 kts | 9° |
| 2026-05-03 21:21 | 49.51245 | -2.25510 | 15436 ft | 332 kts | 9° |
| 2026-05-03 21:21 | 49.53532 | -2.24867 | 16094 ft | 337 kts | 9° |
| 2026-05-03 21:21 | 49.55857 | -2.24213 | 16750 ft | 342 kts | 9° |
| 2026-05-03 21:22 | 49.58215 | -2.23546 | 17408 ft | 346 kts | 9° |
| 2026-05-03 21:22 | 49.60599 | -2.22872 | 18056 ft | 351 kts | 9° |
| 2026-05-03 21:22 | 49.63019 | -2.22190 | 18644 ft | 355 kts | 9° |
| 2026-05-03 21:22 | 49.65463 | -2.21505 | 19226 ft | 359 kts | 8° |
| 2026-05-03 21:23 | 49.67933 | -2.20808 | 19819 ft | 362 kts | 10° |
| 2026-05-03 21:23 | 49.70362 | -2.19678 | 20395 ft | 367 kts | 22° |
| 2026-05-03 21:23 | 49.72650 | -2.17822 | 20703 ft | 380 kts | 34° |
| 2026-05-03 21:23 | 49.74794 | -2.15293 | 20841 ft | 396 kts | 39° |
| 2026-05-03 21:24 | 49.76990 | -2.12597 | 20969 ft | 411 kts | 39° |
| 2026-05-03 21:24 | 49.79273 | -2.09801 | 21103 ft | 426 kts | 39° |
| 2026-05-03 21:24 | 49.81635 | -2.06922 | 21327 ft | 437 kts | 39° |
| 2026-05-03 21:24 | 49.84040 | -2.03997 | 21757 ft | 442 kts | 39° |
| 2026-05-03 21:25 | 49.86471 | -2.01039 | 22228 ft | 446 kts | 38° |
| 2026-05-03 21:25 | 49.88916 | -1.98064 | 22718 ft | 449 kts | 39° |
| 2026-05-03 21:25 | 49.91375 | -1.95068 | 22918 ft | 451 kts | 38° |
| 2026-05-03 21:25 | 49.93937 | -1.92133 | 22958 ft | 464 kts | 31° |
| 2026-05-03 21:26 | 49.96810 | -1.89714 | 22951 ft | 473 kts | 27° |
| 2026-05-03 21:26 | 49.99732 | -1.87326 | 22947 ft | 475 kts | 27° |
| 2026-05-03 21:26 | 50.02662 | -1.84942 | 22943 ft | 476 kts | 27° |
| 2026-05-03 21:26 | 50.05617 | -1.82535 | 22934 ft | 485 kts | 27° |
| 2026-05-03 21:27 | 50.08644 | -1.80062 | 22951 ft | 496 kts | 27° |
| 2026-05-03 21:27 | 50.11716 | -1.77537 | 22954 ft | 501 kts | 27° |
| 2026-05-03 21:27 | 50.14801 | -1.74994 | 22956 ft | 502 kts | 27° |
| 2026-05-03 21:27 | 50.17847 | -1.72480 | 22952 ft | 502 kts | 27° |
| 2026-05-03 21:28 | 50.20931 | -1.69929 | 22944 ft | 502 kts | 27° |
| 2026-05-03 21:28 | 50.24010 | -1.67376 | 22932 ft | 501 kts | 27° |
| 2026-05-03 21:28 | 50.27086 | -1.64820 | 22950 ft | 501 kts | 27° |
| 2026-05-03 21:28 | 50.30167 | -1.62256 | 22951 ft | 501 kts | 27° |
| 2026-05-03 21:29 | 50.33246 | -1.59692 | 22946 ft | 501 kts | 27° |
| 2026-05-03 21:29 | 50.36322 | -1.57131 | 22947 ft | 501 kts | 27° |
| 2026-05-03 21:29 | 50.39398 | -1.54569 | 22942 ft | 500 kts | 27° |
| 2026-05-03 21:29 | 50.42465 | -1.52013 | 22932 ft | 500 kts | 27° |
| 2026-05-03 21:30 | 50.45540 | -1.49449 | 22944 ft | 497 kts | 27° |
| 2026-05-03 21:30 | 50.48526 | -1.46955 | 22946 ft | 479 kts | 28° |
| 2026-05-03 21:30 | 50.51444 | -1.44513 | 22797 ft | 470 kts | 28° |
| 2026-05-03 21:30 | 50.54308 | -1.42113 | 22714 ft | 465 kts | 28° |
| 2026-05-03 21:31 | 50.57159 | -1.39719 | 22441 ft | 463 kts | 28° |
| 2026-05-03 21:31 | 50.59989 | -1.37331 | 22168 ft | 460 kts | 28° |
| 2026-05-03 21:31 | 50.62797 | -1.34952 | 21906 ft | 458 kts | 28° |
| 2026-05-03 21:31 | 50.65592 | -1.32582 | 21636 ft | 456 kts | 28° |
| 2026-05-03 21:32 | 50.68377 | -1.30221 | 21311 ft | 452 kts | 28° |
| 2026-05-03 21:32 | 50.71142 | -1.27884 | 20519 ft | 449 kts | 28° |
| 2026-05-03 21:32 | 50.73888 | -1.25564 | 19774 ft | 445 kts | 28° |
| 2026-05-03 21:32 | 50.76593 | -1.23254 | 19111 ft | 439 kts | 29° |
| 2026-05-03 21:33 | 50.79175 | -1.20845 | 18475 ft | 435 kts | 32° |
| 2026-05-03 21:33 | 50.81710 | -1.18269 | 17795 ft | 430 kts | 33° |
| 2026-05-03 21:33 | 50.84171 | -1.15650 | 17188 ft | 424 kts | 34° |
| 2026-05-03 21:33 | 50.86592 | -1.13037 | 16611 ft | 418 kts | 34° |
| 2026-05-03 21:34 | 50.88985 | -1.10467 | 16010 ft | 413 kts | 34° |
| 2026-05-03 21:34 | 50.91358 | -1.07955 | 15397 ft | 409 kts | 34° |
| 2026-05-03 21:34 | 50.93724 | -1.05488 | 14800 ft | 404 kts | 33° |
| 2026-05-03 21:34 | 50.96069 | -1.03056 | 14179 ft | 401 kts | 33° |
| 2026-05-03 21:35 | 50.98399 | -1.00647 | 13518 ft | 398 kts | 33° |
| 2026-05-03 21:35 | 51.00612 | -0.98047 | 12828 ft | 393 kts | 42° |
| 2026-05-03 21:35 | 51.02526 | -0.94952 | 11828 ft | 396 kts | 49° |
| 2026-05-03 21:35 | 51.04373 | -0.91673 | 10862 ft | 400 kts | 49° |
| 2026-05-03 21:36 | 51.06194 | -0.88419 | 10624 ft | 383 kts | 49° |
| 2026-05-03 21:36 | 51.07916 | -0.85339 | 10514 ft | 362 kts | 49° |
| 2026-05-03 21:36 | 51.09525 | -0.82464 | 10383 ft | 333 kts | 49° |
| 2026-05-03 21:36 | 51.11005 | -0.79820 | 10217 ft | 310 kts | 49° |
| 2026-05-03 21:37 | 51.12412 | -0.77305 | 9850 ft | 298 kts | 49° |
| 2026-05-03 21:37 | 51.13765 | -0.74880 | 9732 ft | 298 kts | 49° |
| 2026-05-03 21:37 | 51.15151 | -0.72394 | 9596 ft | 297 kts | 49° |
| 2026-05-03 21:37 | 51.16518 | -0.69939 | 9465 ft | 296 kts | 49° |
| 2026-05-03 21:38 | 51.17881 | -0.67490 | 9316 ft | 295 kts | 49° |
| 2026-05-03 21:38 | 51.19242 | -0.65046 | 9035 ft | 294 kts | 49° |
| 2026-05-03 21:38 | 51.20302 | -0.63146 | 8800 ft | 292 kts | 49° |
| 2026-05-03 21:38 | 51.21649 | -0.60727 | 8481 ft | 291 kts | 49° |
| 2026-05-03 21:39 | 51.22979 | -0.58332 | 8166 ft | 289 kts | 49° |
| 2026-05-03 21:39 | 51.24305 | -0.55939 | 7852 ft | 287 kts | 49° |
| 2026-05-03 21:39 | 51.25627 | -0.53557 | 7582 ft | 283 kts | 49° |
| 2026-05-03 21:39 | 51.26891 | -0.51276 | 7453 ft | 265 kts | 49° |
| 2026-05-03 21:40 | 51.28069 | -0.49144 | 7325 ft | 247 kts | 49° |
| 2026-05-03 21:40 | 51.29172 | -0.47146 | 7200 ft | 234 kts | 49° |
| 2026-05-03 21:40 | 51.30235 | -0.45218 | 7028 ft | 230 kts | 49° |
| 2026-05-03 21:40 | 51.31308 | -0.43340 | 6742 ft | 232 kts | 47° |
| 2026-05-03 21:41 | 51.32449 | -0.41481 | 6461 ft | 232 kts | 45° |
| 2026-05-03 21:41 | 51.33544 | -0.39739 | 6340 ft | 224 kts | 45° |
| 2026-05-03 21:41 | 51.34614 | -0.38040 | 6200 ft | 208 kts | 45° |
| 2026-05-03 21:41 | 51.35591 | -0.36483 | 5925 ft | 198 kts | 45° |
| 2026-05-03 21:42 | 51.36544 | -0.34957 | 5757 ft | 183 kts | 45° |
| 2026-05-03 21:42 | 51.37402 | -0.33579 | 5474 ft | 177 kts | 46° |
| 2026-05-03 21:42 | 51.38267 | -0.32186 | 5143 ft | 176 kts | 46° |
| 2026-05-03 21:42 | 51.39124 | -0.30805 | 4821 ft | 174 kts | 46° |
| 2026-05-03 21:43 | 51.39975 | -0.29429 | 4491 ft | 173 kts | 46° |
| 2026-05-03 21:43 | 51.40622 | -0.27840 | 4160 ft | 170 kts | 69° |
| 2026-05-03 21:43 | 51.41111 | -0.26119 | 3821 ft | 170 kts | 64° |
| 2026-05-03 21:43 | 51.41636 | -0.24452 | 3592 ft | 163 kts | 63° |
| 2026-05-03 21:44 | 51.42134 | -0.22886 | 3432 ft | 155 kts | 63° |
| 2026-05-03 21:44 | 51.42658 | -0.21394 | 3179 ft | 153 kts | 49° |
| 2026-05-03 21:44 | 51.43555 | -0.20582 | 2920 ft | 151 kts | 4° |
| 2026-05-03 21:44 | 51.44574 | -0.20864 | 2664 ft | 150 kts | 339° |
| 2026-05-03 21:45 | 51.45522 | -0.21530 | 2595 ft | 149 kts | 334° |
| 2026-05-03 21:45 | 51.46422 | -0.22232 | 3275 ft | 139 kts | 333° |
| 2026-05-03 21:45 | 51.47315 | -0.22944 | 3735 ft | 146 kts | 333° |
| 2026-05-03 21:45 | 51.48236 | -0.23679 | 4212 ft | 153 kts | 333° |
| 2026-05-03 21:46 | 51.49280 | -0.24498 | 4093 ft | 176 kts | 336° |
| 2026-05-03 21:46 | 51.50491 | -0.24687 | 3689 ft | 181 kts | 17° |
| 2026-05-03 21:46 | 51.51481 | -0.23534 | 3321 ft | 183 kts | 58° |
| 2026-05-03 21:46 | 51.51757 | -0.21547 | 2933 ft | 184 kts | 99° |
| 2026-05-03 21:47 | 51.51152 | -0.19806 | 2553 ft | 181 kts | 142° |
| 2026-05-03 21:47 | 51.50022 | -0.19247 | 2463 ft | 166 kts | 188° |
| 2026-05-03 21:47 | 51.49077 | -0.20083 | 2466 ft | 155 kts | 236° |
| 2026-05-03 21:47 | 51.48646 | -0.21643 | 2502 ft | 153 kts | 251° |
| 2026-05-03 21:48 | 51.48306 | -0.23231 | 2482 ft | 152 kts | 252° |
| 2026-05-03 21:48 | 51.47973 | -0.24832 | 2509 ft | 151 kts | 252° |
| 2026-05-03 21:48 | 51.47823 | -0.26502 | 2336 ft | 152 kts | 269° |
| 2026-05-03 21:48 | 51.47807 | -0.28180 | 2033 ft | 148 kts | 270° |
| 2026-05-03 21:49 | 51.47799 | -0.29821 | 1832 ft | 147 kts | 270° |
| 2026-05-03 21:49 | 51.47794 | -0.31449 | 1619 ft | 146 kts | 270° |
| 2026-05-03 21:49 | 51.47790 | -0.33075 | 1416 ft | 146 kts | 270° |
| 2026-05-03 21:49 | 51.47785 | -0.34700 | 1214 ft | 145 kts | 270° |
| 2026-05-03 21:50 | 51.47782 | -0.36320 | 1013 ft | 145 kts | 269° |
| 2026-05-03 21:50 | 51.47779 | -0.37940 | 812 ft | 145 kts | 269° |
| 2026-05-03 21:50 | 51.47775 | -0.39558 | 612 ft | 145 kts | 269° |
| 2026-05-03 21:50 | 51.47771 | -0.41156 | 414 ft | 144 kts | 268° |
| 2026-05-03 21:51 | 51.47767 | -0.42715 | 219 ft | 142 kts | 268° |
| 2026-05-03 21:51 | 51.47762 | -0.44274 | 86 ft | 127 kts | 269° |
| 2026-05-03 21:51 | 51.47760 | -0.45376 | 88 ft | 65 kts | 270° |
| 2026-05-03 21:51 | 51.47737 | -0.45824 | 88 ft | 31 kts | 244° |
| 2026-05-03 21:52 | 51.47620 | -0.46014 | 88 ft | 0 kts | 221° |
| 2026-05-03 21:52 | 51.47619 | -0.46016 | 87 ft | 1 kts | 221° |
| 2026-05-03 21:53 | 51.47598 | -0.46046 | 87 ft | 13 kts | 221° |
| 2026-05-03 21:53 | 51.47513 | -0.46144 | 89 ft | 16 kts | 232° |
| 2026-05-03 21:53 | 51.47438 | -0.46114 | 88 ft | 12 kts | 94° |
| 2026-05-03 21:53 | 51.47457 | -0.46030 | 88 ft | 0 kts | 64° |
| 2026-05-03 21:54 | 51.47458 | -0.46027 | 88 ft | 1 kts | 64° |
| 2026-05-03 21:54 | 51.47459 | -0.46023 | 89 ft | 0 kts | 64° |